sensor_id;sensor_type;location;lat;lon;timestamp;temperature;humidity
7708;DHT22;3896;48.758;8.888;2023-03-14T00:01:56;11.70;99.90
7708;DHT22;3896;48.758;8.888;2023-03-14T00:04:22;11.70;99.90
7708;DHT22;3896;48.758;8.888;2023-03-14T00:06:47;11.70;99.90
7708;DHT22;3896;48.758;8.888;2023-03-14T00:09:15;11.70;99.90
7708;DHT22;3896;48.758;8.888;2023-03-14T00:11:40;11.60;99.90
7708;DHT22;3896;48.758;8.888;2023-03-14T00:14:06;11.60;99.90
7708;DHT22;3896;48.758;8.888;2023-03-14T00:16:31;11.60;99.90
7708;DHT22;3896;48.758;8.888;2023-03-14T00:18:59;11.60;99.90
7708;DHT22;3896;48.758;8.888;2023-03-14T00:21:25;11.60;99.90
7708;DHT22;3896;48.758;8.888;2023-03-14T00:23:50;11.50;99.90
7708;DHT22;3896;48.758;8.888;2023-03-14T00:26:18;11.50;99.90
7708;DHT22;3896;48.758;8.888;2023-03-14T00:28:44;11.50;99.90
7708;DHT22;3896;48.758;8.888;2023-03-14T00:31:13;11.50;99.90
7708;DHT22;3896;48.758;8.888;2023-03-14T00:33:39;11.40;99.90
7708;DHT22;3896;48.758;8.888;2023-03-14T00:36:07;11.50;99.90
7708;DHT22;3896;48.758;8.888;2023-03-14T00:38:34;11.40;99.90
7708;DHT22;3896;48.758;8.888;2023-03-14T00:41:05;11.40;99.90
7708;DHT22;3896;48.758;8.888;2023-03-14T00:43:30;11.40;99.90
7708;DHT22;3896;48.758;8.888;2023-03-14T00:45:56;11.40;99.90
7708;DHT22;3896;48.758;8.888;2023-03-14T00:48:22;11.40;99.90
7708;DHT22;3896;48.758;8.888;2023-03-14T00:50:48;11.40;99.90
7708;DHT22;3896;48.758;8.888;2023-03-14T00:53:14;11.40;99.90
7708;DHT22;3896;48.758;8.888;2023-03-14T00:55:40;11.40;99.90
7708;DHT22;3896;48.758;8.888;2023-03-14T00:58:07;11.40;99.90
7708;DHT22;3896;48.758;8.888;2023-03-14T01:00:33;11.30;99.90
7708;DHT22;3896;48.758;8.888;2023-03-14T01:03:00;11.30;99.90
7708;DHT22;3896;48.758;8.888;2023-03-14T01:05:26;11.30;99.90
7708;DHT22;3896;48.758;8.888;2023-03-14T01:07:51;11.30;99.90
7708;DHT22;3896;48.758;8.888;2023-03-14T01:10:17;11.30;99.90
7708;DHT22;3896;48.758;8.888;2023-03-14T01:12:43;11.30;99.90
7708;DHT22;3896;48.758;8.888;2023-03-14T01:15:08;11.30;99.90
7708;DHT22;3896;48.758;8.888;2023-03-14T01:17:35;11.30;99.90
7708;DHT22;3896;48.758;8.888;2023-03-14T01:20:03;11.40;99.90
7708;DHT22;3896;48.758;8.888;2023-03-14T01:22:30;11.40;99.90
7708;DHT22;3896;48.758;8.888;2023-03-14T01:24:55;11.40;99.90
7708;DHT22;3896;48.758;8.888;2023-03-14T01:27:21;11.30;99.90
7708;DHT22;3896;48.758;8.888;2023-03-14T01:29:46;11.30;99.90
7708;DHT22;3896;48.758;8.888;2023-03-14T01:32:12;11.40;99.90
7708;DHT22;3896;48.758;8.888;2023-03-14T01:34:38;11.30;99.90
7708;DHT22;3896;48.758;8.888;2023-03-14T01:37:04;11.30;99.90
7708;DHT22;3896;48.758;8.888;2023-03-14T01:39:29;11.30;99.90
7708;DHT22;3896;48.758;8.888;2023-03-14T01:41:55;11.30;99.90
7708;DHT22;3896;48.758;8.888;2023-03-14T01:44:21;11.30;99.90
7708;DHT22;3896;48.758;8.888;2023-03-14T01:46:46;11.30;99.90
7708;DHT22;3896;48.758;8.888;2023-03-14T01:49:29;11.30;99.90
7708;DHT22;3896;48.758;8.888;2023-03-14T01:57:17;11.20;99.90
7708;DHT22;3896;48.758;8.888;2023-03-14T01:59:48;11.20;99.90
7708;DHT22;3896;48.758;8.888;2023-03-14T02:02:16;11.20;99.90
7708;DHT22;3896;48.758;8.888;2023-03-14T02:04:42;11.20;99.90
7708;DHT22;3896;48.758;8.888;2023-03-14T02:07:20;11.20;99.90
7708;DHT22;3896;48.758;8.888;2023-03-14T02:09:48;11.10;99.90
7708;DHT22;3896;48.758;8.888;2023-03-14T02:12:16;11.10;99.90
7708;DHT22;3896;48.758;8.888;2023-03-14T02:14:42;11.10;99.90
7708;DHT22;3896;48.758;8.888;2023-03-14T02:17:13;11.10;99.90
7708;DHT22;3896;48.758;8.888;2023-03-14T02:19:54;11.10;99.90
7708;DHT22;3896;48.758;8.888;2023-03-14T02:22:21;11.00;99.90
7708;DHT22;3896;48.758;8.888;2023-03-14T02:25:11;11.00;99.90
7708;DHT22;3896;48.758;8.888;2023-03-14T02:27:38;11.00;99.90
7708;DHT22;3896;48.758;8.888;2023-03-14T02:32:33;11.00;99.90
7708;DHT22;3896;48.758;8.888;2023-03-14T02:35:01;11.00;99.90
7708;DHT22;3896;48.758;8.888;2023-03-14T02:37:48;11.00;99.90
7708;DHT22;3896;48.758;8.888;2023-03-14T02:40:14;10.90;99.90
7708;DHT22;3896;48.758;8.888;2023-03-14T02:42:40;10.90;99.90
7708;DHT22;3896;48.758;8.888;2023-03-14T02:47:34;10.90;99.90
7708;DHT22;3896;48.758;8.888;2023-03-14T02:50:06;10.90;99.90
7708;DHT22;3896;48.758;8.888;2023-03-14T02:52:33;10.90;99.90
7708;DHT22;3896;48.758;8.888;2023-03-14T02:54:59;10.90;99.90
7708;DHT22;3896;48.758;8.888;2023-03-14T02:57:24;10.90;99.90
7708;DHT22;3896;48.758;8.888;2023-03-14T02:59:50;10.90;99.90
7708;DHT22;3896;48.758;8.888;2023-03-14T03:02:16;10.80;99.90
7708;DHT22;3896;48.758;8.888;2023-03-14T03:04:41;10.80;99.90
7708;DHT22;3896;48.758;8.888;2023-03-14T03:07:07;10.80;99.90
7708;DHT22;3896;48.758;8.888;2023-03-14T03:09:32;10.80;99.90
7708;DHT22;3896;48.758;8.888;2023-03-14T03:11:58;10.80;99.90
7708;DHT22;3896;48.758;8.888;2023-03-14T03:14:23;10.80;99.90
7708;DHT22;3896;48.758;8.888;2023-03-14T03:16:49;10.80;99.90
7708;DHT22;3896;48.758;8.888;2023-03-14T03:19:15;10.70;99.90
7708;DHT22;3896;48.758;8.888;2023-03-14T03:21:41;10.70;99.90
7708;DHT22;3896;48.758;8.888;2023-03-14T03:24:07;10.70;99.90
7708;DHT22;3896;48.758;8.888;2023-03-14T03:26:34;10.70;99.90
7708;DHT22;3896;48.758;8.888;2023-03-14T03:29:00;10.70;99.90
7708;DHT22;3896;48.758;8.888;2023-03-14T03:31:25;10.60;99.90
7708;DHT22;3896;48.758;8.888;2023-03-14T03:33:51;10.60;99.90
7708;DHT22;3896;48.758;8.888;2023-03-14T03:36:21;10.60;99.90
7708;DHT22;3896;48.758;8.888;2023-03-14T03:38:47;10.60;99.90
7708;DHT22;3896;48.758;8.888;2023-03-14T03:41:13;10.60;99.90
7708;DHT22;3896;48.758;8.888;2023-03-14T03:43:38;10.60;99.90
7708;DHT22;3896;48.758;8.888;2023-03-14T03:46:05;10.60;99.90
7708;DHT22;3896;48.758;8.888;2023-03-14T03:48:31;10.60;99.90
7708;DHT22;3896;48.758;8.888;2023-03-14T03:50:56;10.50;99.90
7708;DHT22;3896;48.758;8.888;2023-03-14T03:53:23;10.50;99.90
7708;DHT22;3896;48.758;8.888;2023-03-14T03:55:48;10.50;99.90
7708;DHT22;3896;48.758;8.888;2023-03-14T03:58:14;10.40;99.90
7708;DHT22;3896;48.758;8.888;2023-03-14T04:00:40;10.40;99.90
7708;DHT22;3896;48.758;8.888;2023-03-14T04:03:05;10.40;99.90
7708;DHT22;3896;48.758;8.888;2023-03-14T04:05:31;10.40;99.90
7708;DHT22;3896;48.758;8.888;2023-03-14T04:07:56;10.30;99.90
7708;DHT22;3896;48.758;8.888;2023-03-14T04:10:22;10.30;99.90
7708;DHT22;3896;48.758;8.888;2023-03-14T04:12:47;10.30;99.90
7708;DHT22;3896;48.758;8.888;2023-03-14T04:15:13;10.30;99.90
7708;DHT22;3896;48.758;8.888;2023-03-14T04:17:39;10.20;99.90
7708;DHT22;3896;48.758;8.888;2023-03-14T04:20:05;10.20;99.90
7708;DHT22;3896;48.758;8.888;2023-03-14T04:22:30;10.20;99.90
7708;DHT22;3896;48.758;8.888;2023-03-14T04:24:56;10.10;99.90
7708;DHT22;3896;48.758;8.888;2023-03-14T04:27:21;10.10;99.90
7708;DHT22;3896;48.758;8.888;2023-03-14T04:29:47;10.10;99.90
7708;DHT22;3896;48.758;8.888;2023-03-14T04:32:12;10.10;99.90
7708;DHT22;3896;48.758;8.888;2023-03-14T04:34:38;10.10;99.90
7708;DHT22;3896;48.758;8.888;2023-03-14T04:37:04;10.10;99.90
7708;DHT22;3896;48.758;8.888;2023-03-14T04:39:29;10.10;99.90
7708;DHT22;3896;48.758;8.888;2023-03-14T04:41:55;10.10;99.90
7708;DHT22;3896;48.758;8.888;2023-03-14T04:44:20;10.00;99.90
7708;DHT22;3896;48.758;8.888;2023-03-14T04:46:46;10.10;99.90
7708;DHT22;3896;48.758;8.888;2023-03-14T04:49:11;10.00;99.90
7708;DHT22;3896;48.758;8.888;2023-03-14T04:51:37;10.00;99.90
7708;DHT22;3896;48.758;8.888;2023-03-14T04:54:02;10.00;99.90
7708;DHT22;3896;48.758;8.888;2023-03-14T04:56:28;10.00;99.90
7708;DHT22;3896;48.758;8.888;2023-03-14T04:58:53;10.00;99.90
7708;DHT22;3896;48.758;8.888;2023-03-14T05:01:19;9.90;99.90
7708;DHT22;3896;48.758;8.888;2023-03-14T05:03:45;9.90;99.90
7708;DHT22;3896;48.758;8.888;2023-03-14T05:06:10;9.90;99.90
7708;DHT22;3896;48.758;8.888;2023-03-14T05:08:36;9.90;99.90
7708;DHT22;3896;48.758;8.888;2023-03-14T05:11:01;9.90;99.90
7708;DHT22;3896;48.758;8.888;2023-03-14T05:13:28;9.90;99.90
7708;DHT22;3896;48.758;8.888;2023-03-14T05:16:02;9.90;99.90
7708;DHT22;3896;48.758;8.888;2023-03-14T05:18:28;9.90;99.90
7708;DHT22;3896;48.758;8.888;2023-03-14T05:20:53;9.90;99.90
7708;DHT22;3896;48.758;8.888;2023-03-14T05:23:19;9.90;99.90
7708;DHT22;3896;48.758;8.888;2023-03-14T05:25:44;9.90;99.90
7708;DHT22;3896;48.758;8.888;2023-03-14T05:28:10;9.80;99.90
7708;DHT22;3896;48.758;8.888;2023-03-14T05:30:36;9.80;99.90
7708;DHT22;3896;48.758;8.888;2023-03-14T05:33:01;9.80;99.90
7708;DHT22;3896;48.758;8.888;2023-03-14T05:35:27;9.80;99.90
7708;DHT22;3896;48.758;8.888;2023-03-14T05:37:52;9.80;99.90
7708;DHT22;3896;48.758;8.888;2023-03-14T05:40:18;9.70;99.90
7708;DHT22;3896;48.758;8.888;2023-03-14T05:42:43;9.70;99.90
7708;DHT22;3896;48.758;8.888;2023-03-14T05:45:09;9.70;99.90
7708;DHT22;3896;48.758;8.888;2023-03-14T05:47:35;9.70;99.90
7708;DHT22;3896;48.758;8.888;2023-03-14T05:50:00;9.70;99.90
7708;DHT22;3896;48.758;8.888;2023-03-14T05:52:26;9.70;99.90
7708;DHT22;3896;48.758;8.888;2023-03-14T05:54:51;9.70;99.90
7708;DHT22;3896;48.758;8.888;2023-03-14T05:57:17;9.70;99.90
7708;DHT22;3896;48.758;8.888;2023-03-14T05:59:43;9.70;99.90
7708;DHT22;3896;48.758;8.888;2023-03-14T06:02:08;9.70;99.90
7708;DHT22;3896;48.758;8.888;2023-03-14T06:04:34;9.70;99.90
7708;DHT22;3896;48.758;8.888;2023-03-14T06:06:59;9.60;99.90
7708;DHT22;3896;48.758;8.888;2023-03-14T06:09:25;9.70;99.90
7708;DHT22;3896;48.758;8.888;2023-03-14T06:11:50;9.70;99.90
7708;DHT22;3896;48.758;8.888;2023-03-14T06:14:17;9.70;99.90
7708;DHT22;3896;48.758;8.888;2023-03-14T06:16:42;9.60;99.90
7708;DHT22;3896;48.758;8.888;2023-03-14T06:19:08;9.60;99.90
7708;DHT22;3896;48.758;8.888;2023-03-14T06:21:33;9.60;99.90
7708;DHT22;3896;48.758;8.888;2023-03-14T06:23:59;9.60;99.90
7708;DHT22;3896;48.758;8.888;2023-03-14T06:26:25;9.90;99.90
7708;DHT22;3896;48.758;8.888;2023-03-14T06:28:50;9.80;99.90
7708;DHT22;3896;48.758;8.888;2023-03-14T06:31:16;9.80;99.90
7708;DHT22;3896;48.758;8.888;2023-03-14T06:33:42;9.70;99.90
7708;DHT22;3896;48.758;8.888;2023-03-14T06:36:08;9.70;99.90
7708;DHT22;3896;48.758;8.888;2023-03-14T06:38:33;9.70;99.90
7708;DHT22;3896;48.758;8.888;2023-03-14T06:41:06;9.70;99.90
7708;DHT22;3896;48.758;8.888;2023-03-14T06:43:31;9.60;99.90
7708;DHT22;3896;48.758;8.888;2023-03-14T06:45:57;9.60;99.90
7708;DHT22;3896;48.758;8.888;2023-03-14T06:48:23;9.60;99.90
7708;DHT22;3896;48.758;8.888;2023-03-14T06:50:48;9.60;99.90
7708;DHT22;3896;48.758;8.888;2023-03-14T06:53:14;9.60;99.90
7708;DHT22;3896;48.758;8.888;2023-03-14T06:55:40;9.60;99.90
7708;DHT22;3896;48.758;8.888;2023-03-14T06:58:05;9.60;99.90
7708;DHT22;3896;48.758;8.888;2023-03-14T07:00:33;9.60;99.90
7708;DHT22;3896;48.758;8.888;2023-03-14T07:02:59;9.70;99.90
7708;DHT22;3896;48.758;8.888;2023-03-14T07:05:24;9.70;99.90
7708;DHT22;3896;48.758;8.888;2023-03-14T07:07:50;9.70;99.90
7708;DHT22;3896;48.758;8.888;2023-03-14T07:10:16;9.80;99.90
7708;DHT22;3896;48.758;8.888;2023-03-14T07:12:41;9.90;99.90
7708;DHT22;3896;48.758;8.888;2023-03-14T07:15:07;10.00;99.90
7708;DHT22;3896;48.758;8.888;2023-03-14T07:17:33;10.10;99.90
7708;DHT22;3896;48.758;8.888;2023-03-14T07:19:58;10.10;99.90
7708;DHT22;3896;48.758;8.888;2023-03-14T07:22:24;10.20;99.90
7708;DHT22;3896;48.758;8.888;2023-03-14T07:24:50;10.30;99.90
7708;DHT22;3896;48.758;8.888;2023-03-14T07:27:15;10.30;99.90
7708;DHT22;3896;48.758;8.888;2023-03-14T07:29:41;10.40;99.90
7708;DHT22;3896;48.758;8.888;2023-03-14T07:32:06;10.50;99.90
7708;DHT22;3896;48.758;8.888;2023-03-14T07:34:33;10.50;99.90
7708;DHT22;3896;48.758;8.888;2023-03-14T07:36:59;10.60;99.90
7708;DHT22;3896;48.758;8.888;2023-03-14T07:39:24;10.70;99.90
7708;DHT22;3896;48.758;8.888;2023-03-14T07:41:50;10.80;99.90
7708;DHT22;3896;48.758;8.888;2023-03-14T07:44:15;10.90;99.90
7708;DHT22;3896;48.758;8.888;2023-03-14T07:46:41;11.00;99.90
7708;DHT22;3896;48.758;8.888;2023-03-14T07:49:07;11.20;99.90
7708;DHT22;3896;48.758;8.888;2023-03-14T07:51:32;11.30;99.90
7708;DHT22;3896;48.758;8.888;2023-03-14T07:53:58;11.50;99.90
7708;DHT22;3896;48.758;8.888;2023-03-14T07:56:23;11.60;99.90
7708;DHT22;3896;48.758;8.888;2023-03-14T07:58:49;11.70;99.20
7708;DHT22;3896;48.758;8.888;2023-03-14T08:01:15;11.80;98.90
7708;DHT22;3896;48.758;8.888;2023-03-14T08:03:40;11.90;98.70
7708;DHT22;3896;48.758;8.888;2023-03-14T08:06:06;12.00;98.10
7708;DHT22;3896;48.758;8.888;2023-03-14T08:08:32;12.10;97.10
7708;DHT22;3896;48.758;8.888;2023-03-14T08:11:03;12.20;96.30
7708;DHT22;3896;48.758;8.888;2023-03-14T08:13:29;12.30;95.50
7708;DHT22;3896;48.758;8.888;2023-03-14T08:15:54;12.40;94.00
7708;DHT22;3896;48.758;8.888;2023-03-14T08:18:20;12.50;93.20
7708;DHT22;3896;48.758;8.888;2023-03-14T08:20:45;12.50;92.40
7708;DHT22;3896;48.758;8.888;2023-03-14T08:23:11;12.60;92.00
7708;DHT22;3896;48.758;8.888;2023-03-14T08:25:37;12.60;91.50
7708;DHT22;3896;48.758;8.888;2023-03-14T08:28:03;12.70;91.00
7708;DHT22;3896;48.758;8.888;2023-03-14T08:30:29;12.70;90.70
7708;DHT22;3896;48.758;8.888;2023-03-14T08:32:56;12.70;90.60
7708;DHT22;3896;48.758;8.888;2023-03-14T08:35:23;12.80;90.50
7708;DHT22;3896;48.758;8.888;2023-03-14T08:37:49;12.90;90.70
7708;DHT22;3896;48.758;8.888;2023-03-14T08:40:14;13.00;90.20
7708;DHT22;3896;48.758;8.888;2023-03-14T08:42:42;13.10;90.00
7708;DHT22;3896;48.758;8.888;2023-03-14T08:45:10;13.20;89.40
7708;DHT22;3896;48.758;8.888;2023-03-14T08:47:36;13.30;89.40
7708;DHT22;3896;48.758;8.888;2023-03-14T08:50:02;13.40;87.60
7708;DHT22;3896;48.758;8.888;2023-03-14T08:52:29;13.40;86.70
7708;DHT22;3896;48.758;8.888;2023-03-14T08:54:56;13.40;85.80
7708;DHT22;3896;48.758;8.888;2023-03-14T08:57:21;13.40;85.10
7708;DHT22;3896;48.758;8.888;2023-03-14T08:59:47;13.50;85.10
7708;DHT22;3896;48.758;8.888;2023-03-14T09:02:13;13.50;84.10
7708;DHT22;3896;48.758;8.888;2023-03-14T09:04:38;13.50;83.40
7708;DHT22;3896;48.758;8.888;2023-03-14T09:07:04;13.50;83.40
7708;DHT22;3896;48.758;8.888;2023-03-14T09:09:30;13.50;83.50
7708;DHT22;3896;48.758;8.888;2023-03-14T09:11:56;13.50;83.50
7708;DHT22;3896;48.758;8.888;2023-03-14T09:14:22;13.50;83.80
7708;DHT22;3896;48.758;8.888;2023-03-14T09:16:47;13.50;84.10
7708;DHT22;3896;48.758;8.888;2023-03-14T09:19:13;13.50;83.90
7708;DHT22;3896;48.758;8.888;2023-03-14T09:21:38;13.50;84.40
7708;DHT22;3896;48.758;8.888;2023-03-14T09:24:04;13.50;84.70
7708;DHT22;3896;48.758;8.888;2023-03-14T09:26:30;13.50;85.00
7708;DHT22;3896;48.758;8.888;2023-03-14T09:28:56;13.40;85.50
7708;DHT22;3896;48.758;8.888;2023-03-14T09:31:22;13.40;86.10
7708;DHT22;3896;48.758;8.888;2023-03-14T09:33:48;13.50;86.40
7708;DHT22;3896;48.758;8.888;2023-03-14T09:36:13;13.50;85.80
7708;DHT22;3896;48.758;8.888;2023-03-14T09:38:39;13.40;85.80
7708;DHT22;3896;48.758;8.888;2023-03-14T09:41:15;13.50;85.80
7708;DHT22;3896;48.758;8.888;2023-03-14T09:43:42;13.50;85.80
7708;DHT22;3896;48.758;8.888;2023-03-14T09:46:09;13.50;85.50
7708;DHT22;3896;48.758;8.888;2023-03-14T09:48:36;13.60;85.60
7708;DHT22;3896;48.758;8.888;2023-03-14T09:51:16;13.60;85.70
7708;DHT22;3896;48.758;8.888;2023-03-14T09:53:47;13.60;85.60
7708;DHT22;3896;48.758;8.888;2023-03-14T09:56:29;13.60;85.60
7708;DHT22;3896;48.758;8.888;2023-03-14T09:58:59;13.70;85.40
7708;DHT22;3896;48.758;8.888;2023-03-14T10:01:28;13.80;85.20
7708;DHT22;3896;48.758;8.888;2023-03-14T10:03:56;13.90;84.70
7708;DHT22;3896;48.758;8.888;2023-03-14T10:06:26;14.00;85.10
7708;DHT22;3896;48.758;8.888;2023-03-14T10:08:52;14.20;84.20
7708;DHT22;3896;48.758;8.888;2023-03-14T10:11:19;14.30;84.00
7708;DHT22;3896;48.758;8.888;2023-03-14T10:14:08;14.50;83.10
7708;DHT22;3896;48.758;8.888;2023-03-14T10:16:40;14.70;81.80
7708;DHT22;3896;48.758;8.888;2023-03-14T10:19:16;14.80;80.90
7708;DHT22;3896;48.758;8.888;2023-03-14T10:21:51;14.90;79.40
7708;DHT22;3896;48.758;8.888;2023-03-14T10:24:21;15.00;78.40
7708;DHT22;3896;48.758;8.888;2023-03-14T10:26:49;15.10;77.30
7708;DHT22;3896;48.758;8.888;2023-03-14T10:29:17;15.10;77.50
7708;DHT22;3896;48.758;8.888;2023-03-14T10:31:53;15.10;77.60
7708;DHT22;3896;48.758;8.888;2023-03-14T10:34:27;15.10;77.30
7708;DHT22;3896;48.758;8.888;2023-03-14T10:36:59;15.10;76.80
7708;DHT22;3896;48.758;8.888;2023-03-14T10:39:40;15.10;76.70
7708;DHT22;3896;48.758;8.888;2023-03-14T10:44:42;15.10;78.20
7708;DHT22;3896;48.758;8.888;2023-03-14T10:47:19;15.10;79.00
7708;DHT22;3896;48.758;8.888;2023-03-14T10:49:46;14.90;79.50
7708;DHT22;3896;48.758;8.888;2023-03-14T10:52:17;14.90;80.50
7708;DHT22;3896;48.758;8.888;2023-03-14T10:54:47;14.90;80.80
7708;DHT22;3896;48.758;8.888;2023-03-14T10:57:13;14.80;81.60
7708;DHT22;3896;48.758;8.888;2023-03-14T10:59:41;14.80;82.70
7708;DHT22;3896;48.758;8.888;2023-03-14T11:05:31;14.50;83.70
7708;DHT22;3896;48.758;8.888;2023-03-14T11:08:09;14.40;84.20
7708;DHT22;3896;48.758;8.888;2023-03-14T11:10:39;14.30;84.70
7708;DHT22;3896;48.758;8.888;2023-03-14T11:13:32;14.10;85.60
7708;DHT22;3896;48.758;8.888;2023-03-14T11:19:28;14.00;86.80
7708;DHT22;3896;48.758;8.888;2023-03-14T11:21:31;13.80;87.00
7708;DHT22;3896;48.758;8.888;2023-03-14T11:26:50;13.70;87.80
7708;DHT22;3896;48.758;8.888;2023-03-14T11:29:49;13.60;88.70
7708;DHT22;3896;48.758;8.888;2023-03-14T11:40:28;13.30;91.00
7708;DHT22;3896;48.758;8.888;2023-03-14T11:43:26;13.30;91.40
7708;DHT22;3896;48.758;8.888;2023-03-14T11:45:56;13.20;91.60
7708;DHT22;3896;48.758;8.888;2023-03-14T11:50:59;13.20;93.10
7708;DHT22;3896;48.758;8.888;2023-03-14T11:56:03;13.20;93.80
7708;DHT22;3896;48.758;8.888;2023-03-14T11:58:33;13.20;94.50
7708;DHT22;3896;48.758;8.888;2023-03-14T12:01:05;13.20;94.90
7708;DHT22;3896;48.758;8.888;2023-03-14T12:04:00;13.10;95.40
7708;DHT22;3896;48.758;8.888;2023-03-14T12:06:42;13.10;95.70
7708;DHT22;3896;48.758;8.888;2023-03-14T12:09:10;13.00;95.50
7708;DHT22;3896;48.758;8.888;2023-03-14T12:11:44;13.00;95.40
7708;DHT22;3896;48.758;8.888;2023-03-14T12:14:35;12.90;95.10
7708;DHT22;3896;48.758;8.888;2023-03-14T12:17:18;12.90;94.90
7708;DHT22;3896;48.758;8.888;2023-03-14T12:19:44;12.90;94.00
7708;DHT22;3896;48.758;8.888;2023-03-14T12:22:28;12.90;92.60
7708;DHT22;3896;48.758;8.888;2023-03-14T12:24:59;12.90;92.10
7708;DHT22;3896;48.758;8.888;2023-03-14T12:27:48;12.90;91.70
7708;DHT22;3896;48.758;8.888;2023-03-14T12:35:47;12.80;89.80
7708;DHT22;3896;48.758;8.888;2023-03-14T12:41:39;13.00;84.90
7708;DHT22;3896;48.758;8.888;2023-03-14T12:46:57;13.20;79.70
7708;DHT22;3896;48.758;8.888;2023-03-14T12:49:29;13.40;76.40
7708;DHT22;3896;48.758;8.888;2023-03-14T12:52:00;13.50;74.20
7708;DHT22;3896;48.758;8.888;2023-03-14T12:59:56;13.70;69.30
7708;DHT22;3896;48.758;8.888;2023-03-14T13:02:27;13.70;67.80
7708;DHT22;3896;48.758;8.888;2023-03-14T13:05:09;13.80;65.70
7708;DHT22;3896;48.758;8.888;2023-03-14T13:12:34;14.20;62.90
7708;DHT22;3896;48.758;8.888;2023-03-14T13:15:13;14.30;60.90
7708;DHT22;3896;48.758;8.888;2023-03-14T13:17:40;14.30;60.20
7708;DHT22;3896;48.758;8.888;2023-03-14T13:20:30;14.30;59.30
7708;DHT22;3896;48.758;8.888;2023-03-14T13:22:57;14.20;58.10
7708;DHT22;3896;48.758;8.888;2023-03-14T13:25:23;14.20;57.20
7708;DHT22;3896;48.758;8.888;2023-03-14T13:27:52;14.10;57.10
7708;DHT22;3896;48.758;8.888;2023-03-14T13:30:26;13.90;56.10
7708;DHT22;3896;48.758;8.888;2023-03-14T13:32:53;13.80;56.50
7708;DHT22;3896;48.758;8.888;2023-03-14T13:35:28;13.70;56.50
7708;DHT22;3896;48.758;8.888;2023-03-14T13:38:00;13.50;55.90
7708;DHT22;3896;48.758;8.888;2023-03-14T13:40:30;13.40;55.90
7708;DHT22;3896;48.758;8.888;2023-03-14T13:43:02;13.30;56.10
7708;DHT22;3896;48.758;8.888;2023-03-14T13:45:28;13.30;56.20
7708;DHT22;3896;48.758;8.888;2023-03-14T13:47:54;13.30;56.70
7708;DHT22;3896;48.758;8.888;2023-03-14T13:50:19;13.20;55.50
7708;DHT22;3896;48.758;8.888;2023-03-14T13:52:45;13.20;54.50
7708;DHT22;3896;48.758;8.888;2023-03-14T13:55:16;13.20;53.50
7708;DHT22;3896;48.758;8.888;2023-03-14T13:57:48;13.10;52.90
7708;DHT22;3896;48.758;8.888;2023-03-14T14:00:19;13.00;52.20
7708;DHT22;3896;48.758;8.888;2023-03-14T14:02:45;13.00;52.30
7708;DHT22;3896;48.758;8.888;2023-03-14T14:05:11;12.90;51.60
7708;DHT22;3896;48.758;8.888;2023-03-14T14:07:38;12.80;51.40
7708;DHT22;3896;48.758;8.888;2023-03-14T14:10:04;12.80;50.90
7708;DHT22;3896;48.758;8.888;2023-03-14T14:12:36;12.70;50.90
7708;DHT22;3896;48.758;8.888;2023-03-14T14:15:11;12.70;51.20
7708;DHT22;3896;48.758;8.888;2023-03-14T14:17:41;12.60;50.90
7708;DHT22;3896;48.758;8.888;2023-03-14T14:20:22;12.50;50.80
7708;DHT22;3896;48.758;8.888;2023-03-14T14:22:49;12.40;51.40
7708;DHT22;3896;48.758;8.888;2023-03-14T14:25:16;12.30;51.20
7708;DHT22;3896;48.758;8.888;2023-03-14T14:27:46;12.30;51.90
7708;DHT22;3896;48.758;8.888;2023-03-14T14:32:45;12.10;51.30
7708;DHT22;3896;48.758;8.888;2023-03-14T14:35:22;12.10;51.60
7708;DHT22;3896;48.758;8.888;2023-03-14T14:37:49;12.00;51.40
7708;DHT22;3896;48.758;8.888;2023-03-14T14:42:45;11.90;51.50
7708;DHT22;3896;48.758;8.888;2023-03-14T14:45:17;11.80;51.80
7708;DHT22;3896;48.758;8.888;2023-03-14T14:47:52;11.80;51.90
7708;DHT22;3896;48.758;8.888;2023-03-14T14:52:58;11.60;52.20
7708;DHT22;3896;48.758;8.888;2023-03-14T14:55:31;11.60;52.70
7708;DHT22;3896;48.758;8.888;2023-03-14T14:57:58;11.50;52.80
7708;DHT22;3896;48.758;8.888;2023-03-14T15:00:40;11.50;52.60
7708;DHT22;3896;48.758;8.888;2023-03-14T15:03:13;11.50;52.60
7708;DHT22;3896;48.758;8.888;2023-03-14T15:05:40;11.40;52.70
7708;DHT22;3896;48.758;8.888;2023-03-14T15:08:13;11.40;52.70
7708;DHT22;3896;48.758;8.888;2023-03-14T15:10:38;11.40;52.60
7708;DHT22;3896;48.758;8.888;2023-03-14T15:13:04;11.40;52.90
7708;DHT22;3896;48.758;8.888;2023-03-14T15:15:29;11.40;52.90
7708;DHT22;3896;48.758;8.888;2023-03-14T15:17:55;11.40;52.90
7708;DHT22;3896;48.758;8.888;2023-03-14T15:20:21;11.50;52.80
7708;DHT22;3896;48.758;8.888;2023-03-14T15:22:49;11.50;53.10
7708;DHT22;3896;48.758;8.888;2023-03-14T15:25:15;11.50;53.20
7708;DHT22;3896;48.758;8.888;2023-03-14T15:27:41;11.50;52.90
7708;DHT22;3896;48.758;8.888;2023-03-14T15:30:15;11.50;53.10
7708;DHT22;3896;48.758;8.888;2023-03-14T15:32:41;11.50;53.40
7708;DHT22;3896;48.758;8.888;2023-03-14T15:35:08;11.60;53.40
7708;DHT22;3896;48.758;8.888;2023-03-14T15:37:34;11.50;53.10
7708;DHT22;3896;48.758;8.888;2023-03-14T15:40:01;11.50;53.10
7708;DHT22;3896;48.758;8.888;2023-03-14T15:42:28;11.40;52.90
7708;DHT22;3896;48.758;8.888;2023-03-14T15:44:53;11.40;53.20
7708;DHT22;3896;48.758;8.888;2023-03-14T15:47:19;11.40;53.40
7708;DHT22;3896;48.758;8.888;2023-03-14T15:49:44;11.30;53.60
7708;DHT22;3896;48.758;8.888;2023-03-14T15:52:10;11.30;53.70
7708;DHT22;3896;48.758;8.888;2023-03-14T15:54:36;11.30;53.60
7708;DHT22;3896;48.758;8.888;2023-03-14T15:57:01;11.20;53.50
7708;DHT22;3896;48.758;8.888;2023-03-14T15:59:27;11.20;53.60
7708;DHT22;3896;48.758;8.888;2023-03-14T16:01:53;11.10;54.00
7708;DHT22;3896;48.758;8.888;2023-03-14T16:04:18;11.10;54.10
7708;DHT22;3896;48.758;8.888;2023-03-14T16:06:44;11.00;54.30
7708;DHT22;3896;48.758;8.888;2023-03-14T16:09:11;11.10;54.60
7708;DHT22;3896;48.758;8.888;2023-03-14T16:11:37;11.10;54.50
7708;DHT22;3896;48.758;8.888;2023-03-14T16:14:02;11.10;54.60
7708;DHT22;3896;48.758;8.888;2023-03-14T16:16:28;11.10;54.60
7708;DHT22;3896;48.758;8.888;2023-03-14T16:18:53;11.10;54.50
7708;DHT22;3896;48.758;8.888;2023-03-14T16:21:19;11.10;54.50
7708;DHT22;3896;48.758;8.888;2023-03-14T16:23:45;11.10;54.60
7708;DHT22;3896;48.758;8.888;2023-03-14T16:26:17;11.10;54.60
7708;DHT22;3896;48.758;8.888;2023-03-14T16:28:44;11.10;54.60
7708;DHT22;3896;48.758;8.888;2023-03-14T16:31:12;11.10;54.80
7708;DHT22;3896;48.758;8.888;2023-03-14T16:33:38;11.10;54.60
7708;DHT22;3896;48.758;8.888;2023-03-14T16:36:06;11.00;54.60
7708;DHT22;3896;48.758;8.888;2023-03-14T16:38:35;11.00;54.60
7708;DHT22;3896;48.758;8.888;2023-03-14T16:41:05;11.00;54.90
7708;DHT22;3896;48.758;8.888;2023-03-14T16:43:31;10.90;54.90
7708;DHT22;3896;48.758;8.888;2023-03-14T16:45:59;10.90;54.80
7708;DHT22;3896;48.758;8.888;2023-03-14T16:48:26;10.90;54.80
7708;DHT22;3896;48.758;8.888;2023-03-14T16:50:51;10.90;55.00
7708;DHT22;3896;48.758;8.888;2023-03-14T16:53:19;10.90;55.10
7708;DHT22;3896;48.758;8.888;2023-03-14T16:55:45;10.80;55.00
7708;DHT22;3896;48.758;8.888;2023-03-14T16:58:11;10.80;55.20
7708;DHT22;3896;48.758;8.888;2023-03-14T17:00:37;10.80;55.30
7708;DHT22;3896;48.758;8.888;2023-03-14T17:03:04;10.70;55.40
7708;DHT22;3896;48.758;8.888;2023-03-14T17:05:30;10.70;55.60
7708;DHT22;3896;48.758;8.888;2023-03-14T17:07:56;10.60;55.70
7708;DHT22;3896;48.758;8.888;2023-03-14T17:10:22;10.50;56.00
7708;DHT22;3896;48.758;8.888;2023-03-14T17:12:48;10.50;56.20
7708;DHT22;3896;48.758;8.888;2023-03-14T17:15:13;10.40;56.50